Time;durP1;ratioP1;P1;durP2;ratioP2;P2;SDS_P1;SDS_P2;PMS_P1;PMS_P2;Temp;Humidity;BMP_temperature;BMP_pressure;BME280_temperature;BME280_humidity;BME280_pressure;Samples;Min_cycle;Max_cycle;Signal;HPM_P1;HPM_P2
2022/06/03 00:02:39;;;;;;;10.17;5.13;;;21.10;95.80;;;21.54;63.82;95277.38;5041876;28;20478;-53
2022/06/03 00:05:30;;;;;;;9.77;4.33;;;21.10;95.80;;;21.49;63.50;95278.78;5035092;28;20491;-54
2022/06/03 00:08:11;;;;;;;7.17;5.00;;;21.00;95.80;;;21.47;63.56;95274.63;5039940;28;20480;-54
2022/06/03 00:11:03;;;;;;;16.23;5.10;;;21.00;95.80;;;21.44;63.74;95269.66;5044192;28;20486;-55
2022/06/03 00:13:48;;;;;;;21.83;5.93;;;21.00;95.90;;;21.43;64.05;95268.03;5044234;28;20506;-53
2022/06/03 00:16:26;;;;;;;7.43;4.60;;;21.00;96.00;;;21.43;64.08;95265.34;5040848;28;20479;-52
2022/06/03 00:19:30;;;;;;;6.37;4.73;;;21.00;96.20;;;21.43;64.20;95268.03;5040219;28;20932;-51
2022/06/03 00:22:32;;;;;;;5.80;4.70;;;21.00;96.20;;;21.42;64.30;95269.03;5025511;28;20854;-51
2022/06/03 00:25:40;;;;;;;6.63;4.53;;;21.00;96.30;;;21.40;64.26;95271.91;5041036;28;20898;-53
2022/06/03 00:28:20;;;;;;;7.60;4.20;;;21.00;96.20;;;21.39;64.19;95261.41;5036942;28;20941;-53
2022/06/03 00:30:56;;;;;;;12.83;4.90;;;20.90;96.20;;;21.37;64.35;95261.59;5043055;28;20585;-55
2022/06/03 00:34:26;;;;;;;10.00;4.57;;;20.90;96.40;;;21.37;65.04;95269.63;5045395;28;20462;-54
2022/06/03 00:37:04;;;;;;;8.17;4.60;;;20.90;96.90;;;21.35;64.63;95276.19;5018709;28;20466;-53
2022/06/03 00:39:58;;;;;;;8.33;4.83;;;20.90;96.70;;;21.31;65.00;95279.28;5043900;28;20479;-53
2022/06/03 00:42:49;;;;;;;7.30;4.83;;;20.90;96.80;;;21.30;64.93;95282.97;5041406;28;20456;-54
2022/06/03 00:46:00;;;;;;;7.20;4.63;;;20.80;96.90;;;21.30;65.31;95282.13;5042702;28;20555;-51
2022/06/03 00:48:43;;;;;;;5.90;4.70;;;20.80;97.00;;;21.27;64.82;95274.50;5019790;28;20487;-52
2022/06/03 00:51:25;;;;;;;4.67;4.27;;;20.80;97.00;;;21.24;65.23;95274.91;5039028;28;20467;-54
2022/06/03 00:54:36;;;;;;;7.60;4.27;;;20.80;97.00;;;21.22;65.89;95276.94;5039617;28;20460;-53
2022/06/03 00:57:27;;;;;;;11.20;6.10;;;20.80;97.40;;;21.17;65.29;95272.19;5039923;28;20493;-56
2022/06/03 01:00:18;;;;;;;8.10;6.30;;;20.70;97.30;;;21.13;65.87;95274.44;5039040;28;20485;-54
2022/06/03 01:03:09;;;;;;;14.73;6.37;;;20.70;97.50;;;21.09;65.98;95265.13;5042774;28;20452;-54
2022/06/03 01:05:56;;;;;;;7.10;6.40;;;20.70;97.50;;;21.06;65.81;95273.56;5041180;28;20476;-53
2022/06/03 01:08:32;;;;;;;15.20;5.83;;;20.60;97.60;;;21.04;65.30;95275.59;5038674;28;20480;-54
2022/06/03 01:11:17;;;;;;;11.60;6.50;;;20.60;97.50;;;21.00;65.92;95274.34;5042379;28;20582;-54
2022/06/03 01:14:03;;;;;;;11.47;7.77;;;20.60;97.70;;;20.97;66.11;95272.06;5040395;28;20440;-53
2022/06/03 01:17:00;;;;;;;12.50;7.03;;;20.50;97.70;;;20.94;66.22;95265.25;5037147;28;21117;-55
2022/06/03 01:19:45;;;;;;;11.43;6.33;;;20.50;97.70;;;20.91;66.08;95264.81;5037956;28;20879;-54
2022/06/03 01:22:34;;;;;;;8.00;5.73;;;20.50;97.80;;;20.88;66.34;95267.88;5041708;28;20466;-54
2022/06/03 01:25:30;;;;;;;8.93;5.27;;;20.40;97.80;;;20.85;66.59;95266.44;5040590;28;20485;-53
2022/06/03 01:28:30;;;;;;;5.03;4.60;;;20.40;97.90;;;20.81;66.42;95262.47;5037458;28;20487;-55
2022/06/03 01:31:27;;;;;;;5.60;4.93;;;20.40;98.00;;;20.77;66.29;95262.06;5039836;28;20487;-54
2022/06/03 01:34:11;;;;;;;8.50;4.67;;;20.40;97.90;;;20.73;66.18;95260.78;5023146;28;20486;-53
2022/06/03 01:36:59;;;;;;;11.13;4.23;;;20.30;98.00;;;20.70;66.05;95257.66;5040150;28;20979;-55
2022/06/03 01:39:54;;;;;;;6.50;4.40;;;20.30;97.90;;;20.65;66.15;95260.06;5039339;28;20478;-53
2022/06/03 01:43:10;;;;;;;8.47;4.70;;;20.20;97.80;;;20.61;66.57;95264.97;5042708;28;20806;-53
2022/06/03 01:46:15;;;;;;;4.23;3.70;;;20.20;98.00;;;20.56;66.29;95268.22;5025592;28;20476;-52
2022/06/03 01:49:34;;;;;;;11.13;4.30;;;20.20;97.90;;;20.51;66.31;95259.09;5042909;28;21096;-53
2022/06/03 01:52:44;;;;;;;6.17;4.03;;;20.10;98.10;;;20.46;66.16;95270.38;5037723;28;20466;-53
2022/06/03 01:56:09;;;;;;;21.80;3.93;;;20.00;98.30;;;20.41;66.70;95276.28;5042435;28;20464;-53
2022/06/03 01:59:19;;;;;;;5.70;3.80;;;20.00;98.20;;;20.36;66.60;95275.22;5029656;28;20452;-53
2022/06/03 02:02:34;;;;;;;5.23;4.00;;;20.00;98.30;;;20.32;66.66;95269.41;5009697;28;20459;-53
2022/06/03 02:06:04;;;;;;;4.10;3.70;;;19.90;98.30;;;20.29;66.88;95272.47;5043558;28;20844;-53
2022/06/03 02:09:09;;;;;;;4.10;3.80;;;19.90;98.20;;;20.25;66.99;95265.88;5018641;28;20490;-53
2022/06/03 02:12:45;;;;;;;6.43;4.90;;;19.90;98.40;;;20.19;67.02;95267.44;5043884;28;20442;-55
2022/06/03 02:15:44;;;;;;;8.47;4.33;;;19.80;98.90;;;20.16;66.96;95267.00;5007132;28;20844;-53
2022/06/03 02:18:40;;;;;;;7.70;4.87;;;19.70;98.30;;;20.12;66.76;95276.41;5043811;28;20436;-52
2022/06/03 02:21:49;;;;;;;5.97;4.13;;;19.70;98.40;;;20.09;66.79;95282.13;5041673;28;20557;-52
2022/06/03 02:24:57;;;;;;;8.93;4.40;;;19.70;98.40;;;20.08;66.89;95277.78;5039561;28;20452;-53
2022/06/03 02:27:47;;;;;;;5.80;4.90;;;19.70;98.70;;;20.07;67.19;95279.63;5028665;28;20491;-53
2022/06/03 02:30:54;;;;;;;9.17;4.87;;;19.70;98.50;;;20.05;66.49;95273.66;5045063;28;20478;-53
2022/06/03 02:34:10;;;;;;;6.53;5.07;;;19.60;98.40;;;19.99;67.72;95271.75;5045728;28;20447;-53
2022/06/03 02:37:40;;;;;;;6.67;4.80;;;19.60;98.70;;;19.96;67.48;95275.63;5042786;28;20452;-53
2022/06/03 02:40:52;;;;;;;7.50;4.47;;;19.50;98.90;;;19.94;67.56;95284.81;5040293;28;20483;-56
2022/06/03 02:44:31;;;;;;;6.30;4.90;;;19.50;99.00;;;19.91;67.24;95286.03;5043804;28;20498;-55
2022/06/03 02:47:33;;;;;;;8.33;5.10;;;19.50;98.90;;;19.87;67.87;95287.41;5024876;28;20821;-53
2022/06/03 02:50:38;;;;;;;11.77;5.53;;;19.50;98.90;;;19.87;67.86;95287.41;5046077;28;20478;-53
2022/06/03 02:53:57;;;;;;;5.67;4.90;;;19.40;99.00;;;19.87;67.85;95293.56;5044741;28;20455;-55
2022/06/03 02:56:48;;;;;;;6.60;4.90;;;19.40;99.10;;;19.88;67.76;95289.91;5045705;28;20489;-55
2022/06/03 02:59:44;;;;;;;16.80;4.93;;;19.40;99.10;;;19.91;68.19;95291.38;5045898;28;21165;-54
2022/06/03 03:02:30;;;;;;;12.80;4.60;;;19.50;99.40;;;19.90;67.91;95295.06;5045890;28;20531;-54
2022/06/03 03:05:23;;;;;;;5.93;4.87;;;19.50;99.30;;;19.90;68.48;95286.22;5044817;28;20477;-55
2022/06/03 03:08:36;;;;;;;13.80;5.50;;;19.50;99.50;;;19.92;68.84;95294.88;5045449;28;20476;-55
2022/06/03 03:11:23;;;;;;;6.97;4.80;;;19.50;99.70;;;19.94;68.37;95296.34;5040265;28;20486;-54
2022/06/03 03:14:27;;;;;;;9.27;5.13;;;19.50;99.70;;;19.96;68.87;95290.81;5043172;28;20448;-53
2022/06/03 03:17:29;;;;;;;15.77;5.37;;;19.50;99.70;;;19.96;68.41;95294.31;5044462;28;20454;-54
2022/06/03 03:20:30;;;;;;;10.73;5.43;;;19.50;99.70;;;19.96;68.44;95296.97;5044195;28;21030;-54
2022/06/03 03:23:21;;;;;;;11.07;5.27;;;19.50;99.60;;;19.98;68.57;95304.78;5045651;28;20455;-55
2022/06/03 03:25:58;;;;;;;7.13;5.03;;;19.60;99.50;;;20.00;67.83;95306.28;5040280;28;21076;-54
2022/06/03 03:29:01;;;;;;;12.37;5.77;;;19.60;99.60;;;20.08;69.14;95312.50;5040691;28;20471;-54
2022/06/03 03:32:09;;;;;;;6.63;5.53;;;19.60;99.90;;;20.12;68.83;95305.78;5042280;28;20460;-56
2022/06/03 03:35:25;;;;;;;11.97;6.17;;;19.70;99.90;;;20.19;68.87;95310.19;5040833;28;20499;-54
2022/06/03 03:38:41;;;;;;;10.10;5.50;;;19.70;99.90;;;20.27;69.12;95305.75;5035979;28;20969;-52
2022/06/03 03:41:58;;;;;;;13.03;5.00;;;19.80;99.90;;;20.34;68.71;95317.31;5041747;28;20829;-55
2022/06/03 03:45:25;;;;;;;17.10;5.27;;;19.90;99.90;;;20.40;68.80;95316.53;5042019;28;20483;-53
2022/06/03 03:48:21;;;;;;;11.53;5.13;;;20.00;99.90;;;20.48;68.61;95315.59;5040114;28;20487;-55
2022/06/03 03:51:02;;;;;;;11.33;6.20;;;20.00;99.90;;;20.53;68.58;95315.88;5043128;28;20478;-54
2022/06/03 03:53:58;;;;;;;9.33;5.30;;;20.10;99.90;;;20.59;68.74;95325.81;5041714;28;20507;-54
2022/06/03 03:57:10;;;;;;;12.00;6.30;;;20.10;99.90;;;20.65;68.62;95327.75;5041779;28;20920;-53
2022/06/03 04:00:05;;;;;;;23.43;6.00;;;20.20;99.90;;;20.70;68.82;95322.63;5041789;28;21009;-54
2022/06/03 04:03:31;;;;;;;17.13;8.17;;;20.20;99.90;;;20.77;68.84;95336.91;5041786;28;20447;-56
2022/06/03 04:06:42;;;;;;;13.13;5.80;;;20.30;99.90;;;20.86;68.30;95332.22;5042227;28;20486;-56
2022/06/03 04:09:33;;;;;;;7.40;6.00;;;20.40;99.80;;;20.92;67.32;95325.31;5042404;28;21015;-54
2022/06/03 04:12:42;;;;;;;8.60;5.70;;;20.40;99.50;;;20.96;67.38;95323.91;5040560;28;20523;-54
2022/06/03 04:16:10;;;;;;;21.03;7.23;;;20.50;99.50;;;21.02;67.55;95320.47;5042761;28;20483;-57
2022/06/03 04:19:34;;;;;;;17.93;5.90;;;20.60;99.60;;;21.11;67.55;95326.47;5042280;28;20547;-54
2022/06/03 04:22:36;;;;;;;10.83;5.40;;;20.60;99.50;;;21.19;66.79;95328.16;5030555;28;20471;-56
2022/06/03 04:25:46;;;;;;;17.53;5.37;;;20.70;99.20;;;21.26;67.00;95326.38;5044902;28;20483;-59
2022/06/03 04:28:41;;;;;;;11.67;5.13;;;20.70;99.20;;;21.33;66.65;95316.53;4990686;28;20531;-55
2022/06/03 04:32:00;;;;;;;15.40;6.50;;;20.90;99.10;;;21.43;66.98;95322.38;5041652;28;21020;-54
2022/06/03 04:35:13;;;;;;;16.23;5.20;;;20.90;99.20;;;21.50;66.92;95314.41;4959848;28;20479;-55
2022/06/03 04:38:27;;;;;;;14.50;5.30;;;21.00;99.40;;;21.59;66.75;95329.28;5038463;28;20558;-55
2022/06/03 04:41:29;;;;;;;8.70;4.63;;;21.10;99.10;;;21.69;66.61;95341.50;5041419;28;20475;-53
2022/06/03 04:44:48;;;;;;;8.80;4.97;;;21.20;98.90;;;21.76;66.54;95343.19;5040322;28;20459;-53
2022/06/03 04:48:04;;;;;;;16.07;4.93;;;21.30;98.80;;;21.85;66.38;95351.88;5044282;28;20448;-56
2022/06/03 04:51:07;;;;;;;13.97;5.93;;;21.40;98.80;;;21.90;66.42;95357.47;5028788;28;20472;-55
2022/06/03 04:54:26;;;;;;;7.50;5.03;;;21.40;98.80;;;21.95;66.07;95356.88;5039291;28;20991;-55
2022/06/03 04:57:30;;;;;;;8.70;5.37;;;21.50;98.80;;;22.03;66.33;95356.72;5022823;28;20467;-55
2022/06/03 05:00:21;;;;;;;7.43;4.97;;;21.50;98.70;;;22.09;66.39;95353.25;5037095;28;20471;-55
2022/06/03 05:03:35;;;;;;;15.63;6.10;;;21.60;98.70;;;22.18;66.18;95368.13;5036564;28;20460;-55
2022/06/03 05:07:05;;;;;;;12.33;4.90;;;21.70;98.90;;;22.28;66.28;95373.09;5041089;28;20488;-54
2022/06/03 05:10:40;;;;;;;8.73;4.80;;;21.80;99.10;;;22.43;66.05;95377.50;5038522;28;20495;-54
2022/06/03 05:14:09;;;;;;;12.77;5.00;;;21.90;98.80;;;22.60;65.20;95380.66;5016981;28;20451;-54
2022/06/03 05:17:20;;;;;;;13.57;5.03;;;22.10;98.50;;;22.76;65.52;95376.75;4995909;28;20886;-55
2022/06/03 05:20:24;;;;;;;13.77;5.97;;;22.20;98.30;;;22.95;65.11;95377.84;4998492;28;20997;-56
2022/06/03 05:23:17;;;;;;;13.80;6.43;;;22.40;98.40;;;23.15;64.67;95372.53;5038844;28;20443;-57
2022/06/03 05:26:24;;;;;;;12.83;5.67;;;22.60;98.20;;;23.38;64.60;95374.78;5040080;28;20866;-57
2022/06/03 05:29:27;;;;;;;7.03;5.10;;;22.80;97.90;;;23.67;63.32;95378.03;5042821;28;20479;-54
2022/06/03 05:32:42;;;;;;;12.40;6.00;;;23.00;97.60;;;23.93;63.18;95375.31;5019854;28;20471;-56
2022/06/03 05:36:00;;;;;;;14.23;5.40;;;23.30;97.40;;;24.26;62.39;95379.78;5038063;28;20472;-53
2022/06/03 05:39:18;;;;;;;18.27;6.27;;;23.60;97.10;;;24.55;61.75;95384.81;5039613;28;20448;-55
2022/06/03 05:42:27;;;;;;;8.97;5.70;;;23.80;96.60;;;24.81;61.93;95381.19;5025483;28;20505;-55
2022/06/03 05:45:28;;;;;;;6.73;5.30;;;24.10;96.20;;;25.10;60.84;95384.31;5042100;28;20574;-55
2022/06/03 05:47:57;;;;;;;10.73;6.20;;;24.40;95.70;;;25.32;60.32;95388.31;5003931;28;20460;-53
2022/06/03 05:50:33;;;;;;;18.53;5.17;;;24.60;95.40;;;25.55;60.22;95394.97;5040842;28;20471;-54
2022/06/03 05:53:11;;;;;;;8.30;5.37;;;24.80;95.10;;;25.81;58.89;95395.75;5040792;28;20447;-54
2022/06/03 05:55:44;;;;;;;10.23;5.73;;;25.10;94.30;;;25.98;58.46;95379.84;5036691;28;20482;-55
2022/06/03 05:58:26;;;;;;;11.67;4.70;;;25.30;94.00;;;26.17;58.06;95384.22;5043488;28;20834;-54
2022/06/03 06:01:11;;;;;;;12.73;5.00;;;25.50;93.60;;;26.34;57.87;95373.66;5040427;28;20532;-54
2022/06/03 06:03:44;;;;;;;16.23;5.60;;;25.60;93.30;;;26.53;57.59;95370.91;5040037;28;20572;-54
2022/06/03 06:06:25;;;;;;;10.30;6.20;;;25.90;93.10;;;26.75;57.03;95371.28;5046423;28;20466;-53
2022/06/03 06:09:01;;;;;;;7.90;5.27;;;26.10;92.70;;;26.96;56.68;95362.66;5046911;28;20962;-55
2022/06/03 06:11:34;;;;;;;11.07;5.27;;;26.30;92.60;;;27.13;56.30;95360.13;5043170;28;20451;-55
2022/06/03 06:14:26;;;;;;;6.57;5.90;;;26.50;91.90;;;27.32;55.92;95365.47;5046489;28;20447;-54
2022/06/03 06:16:53;;;;;;;14.07;5.87;;;26.60;91.30;;;27.45;55.62;95365.25;5046084;28;20518;-55
2022/06/03 06:19:37;;;;;;;8.90;4.63;;;26.70;91.20;;;27.62;54.98;95361.84;5044807;28;20844;-54
2022/06/03 06:22:26;;;;;;;8.77;5.10;;;26.90;91.00;;;27.78;54.53;95365.69;5045738;28;20469;-53
2022/06/03 06:24:58;;;;;;;9.10;5.50;;;27.00;90.50;;;27.93;54.99;95362.53;5043895;28;21326;-54
2022/06/03 06:28:00;;;;;;;8.77;4.83;;;27.20;90.30;;;28.06;53.98;95367.72;5044863;28;20458;-54
2022/06/03 06:31:09;;;;;;;11.07;5.33;;;27.30;90.00;;;28.26;53.76;95361.91;5041842;28;20497;-55
2022/06/03 06:34:15;;;;;;;6.93;4.73;;;27.50;89.40;;;28.49;53.09;95355.63;5044053;28;20451;-55
2022/06/03 06:37:37;;;;;;;6.33;5.70;;;27.70;87.80;;;28.69;52.92;95357.09;5044513;28;20447;-54
2022/06/03 06:40:13;;;;;;;29.20;5.53;;;27.90;86.40;;;28.83;53.00;95347.63;5041046;28;20471;-54
2022/06/03 06:42:57;;;;;;;10.77;5.23;;;28.10;86.70;;;28.91;52.72;95347.22;5046974;28;20450;-54
2022/06/03 06:45:31;;;;;;;19.43;5.23;;;28.20;86.20;;;29.05;52.06;95347.72;5044475;28;20485;-55
2022/06/03 06:48:06;;;;;;;4.97;4.50;;;28.30;85.80;;;29.15;52.47;95350.59;5044220;28;20455;-54
2022/06/03 06:50:40;;;;;;;16.00;7.33;;;28.40;85.10;;;29.28;51.74;95344.09;5045303;28;20966;-55
2022/06/03 06:53:11;;;;;;;30.30;11.20;;;28.50;85.10;;;29.44;51.63;95341.63;5043740;28;20455;-56
2022/06/03 06:55:51;;;;;;;19.93;6.37;;;28.60;84.30;;;29.58;50.95;95344.81;5041584;28;20493;-56
2022/06/03 06:58:42;;;;;;;11.80;4.90;;;28.80;83.70;;;29.72;51.27;95337.16;5041437;28;20447;-56
2022/06/03 07:01:10;;;;;;;10.63;5.40;;;28.90;82.40;;;29.89;51.10;95343.41;5040638;28;20899;-56
2022/06/03 07:03:50;;;;;;;11.00;5.00;;;29.10;81.90;;;30.08;50.12;95348.53;5046524;28;20831;-54
2022/06/03 07:06:22;;;;;;;10.80;4.83;;;29.30;80.70;;;30.28;48.80;95345.25;5043788;28;20459;-53
2022/06/03 07:08:52;;;;;;;12.47;5.20;;;29.50;78.20;;;30.43;49.02;95340.03;5045209;28;20220;-53
2022/06/03 07:11:22;;;;;;;8.53;4.77;;;29.60;77.90;;;30.52;48.93;95334.97;5046620;28;20860;-55
2022/06/03 07:13:52;;;;;;;10.10;4.90;;;29.70;77.20;;;30.67;48.13;95334.31;5044094;28;20189;-56
2022/06/03 07:22:12;;;;;;;9.60;4.00;;;30.20;73.90;;;31.09;47.05;95336.38;5045255;28;20199;-53
2022/06/03 07:24:49;;;;;;;6.27;4.10;;;30.30;72.50;;;31.20;46.60;95324.53;5042292;28;20303;-54
2022/06/03 07:27:28;;;;;;;8.30;4.03;;;30.40;71.80;;;31.34;45.71;95322.22;5044047;28;20204;-53
2022/06/03 07:30:02;;;;;;;7.53;4.50;;;30.50;71.10;;;31.43;45.98;95328.81;5042932;28;20723;-54
2022/06/03 07:32:33;;;;;;;12.63;4.67;;;30.60;69.70;;;31.50;45.90;95335.91;5039915;28;20201;-53
2022/06/03 07:35:05;;;;;;;6.00;4.63;;;30.70;69.60;;;31.61;45.77;95341.19;5045390;28;20732;-55
2022/06/03 07:37:37;;;;;;;9.60;5.53;;;30.80;69.30;;;31.81;45.84;95340.50;5038827;28;20664;-54
2022/06/03 07:40:07;;;;;;;5.80;5.30;;;30.90;68.90;;;32.02;45.41;95337.06;5043695;28;20221;-54
2022/06/03 07:42:41;;;;;;;7.30;4.63;;;31.20;67.90;;;32.22;45.46;95339.91;5037606;28;20697;-53
2022/06/03 07:45:42;;;;;;;9.47;4.53;;;31.40;67.20;;;32.39;44.12;95347.88;5044546;28;20229;-55
2022/06/03 07:48:13;;;;;;;9.50;4.97;;;31.50;65.50;;;32.50;44.40;95344.13;5038375;28;20208;-57
2022/06/03 07:50:48;;;;;;;12.55;5.35;;;31.70;65.10;;;32.66;44.19;95347.75;5040458;28;20239;-54
2022/06/03 07:53:19;;;;;;;8.53;4.30;;;31.80;64.50;;;32.83;43.80;95347.53;5042829;28;20207;-55
2022/06/03 07:55:53;;;;;;;14.75;5.38;;;32.00;64.00;;;33.04;43.66;95351.09;5043673;28;20240;-55
2022/06/03 07:58:22;;;;;;;15.40;5.15;;;32.20;63.00;;;33.28;43.05;95355.22;5043562;28;20255;-55
2022/06/03 08:00:49;;;;;;;9.95;4.28;;;32.40;62.30;;;33.47;43.09;95352.78;5042853;28;20229;-55
2022/06/03 08:03:18;;;;;;;7.80;4.57;;;32.60;61.70;;;33.58;42.94;95347.03;5040088;28;20216;-52
2022/06/03 08:05:47;;;;;;;8.00;5.10;;;32.80;61.30;;;33.72;42.36;95357.44;5044777;28;20721;-56
2022/06/03 08:11:07;;;;;;;6.82;4.55;;;33.10;59.50;;;34.01;41.15;95357.66;5044645;28;20316;-55
2022/06/03 08:13:47;;;;;;;10.18;4.43;;;33.20;58.50;;;33.98;40.54;95365.59;5043469;28;20205;-56
2022/06/03 08:16:20;;;;;;;14.05;4.88;;;33.30;57.40;;;34.06;41.28;95360.38;5040741;28;20225;-54
2022/06/03 08:18:47;;;;;;;7.20;4.80;;;33.30;57.90;;;34.24;40.61;95367.19;5042858;28;20196;-54
2022/06/03 08:21:18;;;;;;;7.97;4.18;;;33.50;57.70;;;34.47;40.98;95367.63;5042684;28;20224;-60
2022/06/03 08:23:45;;;;;;;5.72;4.30;;;33.70;57.30;;;34.60;40.17;95363.50;5042591;28;20226;-54
2022/06/03 08:26:16;;;;;;;6.03;3.92;;;33.80;56.10;;;34.61;39.45;95367.84;5043225;28;20309;-54
2022/06/03 08:28:48;;;;;;;14.95;5.28;;;33.90;55.10;;;34.56;39.68;95365.94;5040018;28;20604;-56
2022/06/03 08:31:16;;;;;;;6.72;4.55;;;33.80;55.40;;;34.52;39.83;95373.09;5040673;28;20314;-55
2022/06/03 08:33:53;;;;;;;11.55;5.00;;;33.80;55.10;;;34.47;39.41;95368.47;5044977;28;20200;-52
2022/06/03 08:36:23;;;;;;;15.85;4.35;;;33.80;55.00;;;34.44;40.54;95368.19;5035450;28;20232;-56
2022/06/03 08:38:53;;;;;;;22.73;4.93;;;33.70;55.20;;;34.33;40.23;95366.59;5042735;28;20201;-54
2022/06/03 08:41:35;;;;;;;5.35;4.10;;;33.70;55.40;;;34.07;40.05;95362.00;5044752;28;20243;-54
2022/06/03 08:44:19;;;;;;;8.50;4.78;;;33.50;55.10;;;33.76;40.34;95364.00;5034421;28;20383;-54
2022/06/03 08:46:51;;;;;;;13.05;4.57;;;33.20;55.60;;;33.52;40.38;95364.50;5042721;28;20209;-54
2022/06/03 08:49:20;;;;;;;5.25;4.75;;;32.90;55.70;;;33.28;40.81;95366.13;5044424;28;20235;-52
2022/06/03 08:51:50;;;;;;;17.05;4.75;;;32.70;55.50;;;33.19;40.22;95366.69;5040221;28;20216;-54
2022/06/03 08:54:26;;;;;;;10.88;4.88;;;32.60;55.30;;;33.31;40.57;95366.44;5041570;28;20205;-53
2022/06/03 08:56:56;;;;;;;5.32;4.50;;;32.60;55.70;;;33.41;40.77;95373.78;5043758;28;20228;-54
2022/06/03 08:59:26;;;;;;;12.40;4.57;;;32.70;55.50;;;33.36;40.73;95371.06;5040312;28;20251;-54
2022/06/03 09:01:55;;;;;;;9.40;5.70;;;32.70;55.90;;;33.30;40.49;95372.16;5037578;28;20259;-54
2022/06/03 09:04:28;;;;;;;8.52;4.90;;;32.60;55.40;;;33.31;40.31;95369.16;5041888;28;20229;-56
2022/06/03 09:07:03;;;;;;;7.18;5.25;;;32.60;54.80;;;33.34;40.63;95370.50;5042916;28;20207;-53
2022/06/03 09:09:33;;;;;;;13.48;5.10;;;32.60;55.50;;;33.31;40.76;95376.50;5042375;28;20671;-55
2022/06/03 09:12:08;;;;;;;13.30;4.95;;;32.60;55.70;;;33.29;41.22;95370.50;5044599;28;20199;-56
2022/06/03 09:14:36;;;;;;;6.95;5.18;;;32.60;55.90;;;33.45;41.28;95374.88;5034727;28;20257;-52
2022/06/03 09:17:08;;;;;;;18.80;5.88;;;32.70;55.90;;;33.57;40.71;95380.88;5042630;28;20188;-54
2022/06/03 09:19:40;;;;;;;4.80;4.35;;;32.80;55.90;;;33.55;39.21;95369.41;5042415;28;20236;-53
2022/06/03 09:22:12;;;;;;;14.80;4.25;;;32.80;53.80;;;33.37;38.90;95378.13;5039501;28;20202;-55
2022/06/03 09:24:40;;;;;;;12.60;5.20;;;32.70;52.90;;;33.16;39.46;95367.19;5043040;28;20232;-54
2022/06/03 09:27:10;;;;;;;8.23;5.00;;;32.50;53.50;;;32.83;39.51;95388.38;5037664;28;20303;-54
2022/06/03 09:29:37;;;;;;;13.27;4.32;;;32.20;53.70;;;32.42;39.39;95382.75;5041852;28;20236;-55
2022/06/03 09:32:06;;;;;;;8.43;4.38;;;31.80;52.60;;;32.08;40.31;95390.44;5040194;28;20533;-54
2022/06/03 09:34:41;;;;;;;9.13;3.90;;;31.50;53.90;;;31.95;40.99;95391.75;5042938;28;20721;-54
2022/06/03 09:37:10;;;;;;;8.02;3.40;;;31.40;54.60;;;32.11;40.19;95385.31;5042621;28;20193;-56
2022/06/03 09:39:38;;;;;;;9.00;4.22;;;31.40;54.30;;;32.20;39.32;95379.41;5040678;28;20247;-54
2022/06/03 09:42:06;;;;;;;18.15;4.28;;;31.40;53.00;;;32.15;38.89;95381.00;5043169;28;20196;-56
2022/06/03 09:44:34;;;;;;;7.57;4.30;;;31.40;52.30;;;32.01;37.82;95377.09;5042282;28;20232;-55
2022/06/03 09:47:04;;;;;;;9.57;4.53;;;31.30;50.80;;;31.83;38.85;95388.41;5041076;28;20219;-54
2022/06/03 09:49:32;;;;;;;9.80;4.80;;;31.20;51.70;;;31.61;38.34;95381.97;5042679;28;20221;-54
2022/06/03 09:52:01;;;;;;;7.63;4.00;;;31.00;50.70;;;31.41;37.25;95381.78;5039461;28;20245;-53
2022/06/03 09:54:30;;;;;;;7.85;3.95;;;30.80;48.70;;;31.16;36.76;95379.69;5038814;28;20208;-56
2022/06/03 09:57:05;;;;;;;5.13;3.53;;;30.60;49.10;;;31.01;37.19;95373.00;5036676;28;20204;-56
2022/06/03 09:59:35;;;;;;;4.78;2.92;;;30.40;49.90;;;31.09;35.76;95380.69;5033093;28;20657;-52
2022/06/03 10:02:03;;;;;;;4.22;3.25;;;30.40;48.60;;;31.26;36.80;95369.72;5041053;28;20224;-54
2022/06/03 10:04:31;;;;;;;8.13;3.58;;;30.50;49.70;;;31.49;37.15;95370.44;5039634;28;20219;-55
2022/06/03 10:07:00;;;;;;;4.35;2.58;;;30.70;49.70;;;31.79;37.17;95369.03;5039122;28;20683;-55
2022/06/03 10:17:52;;;;;;;17.38;5.65;;;32.00;49.00;;;33.12;35.57;95371.53;5041783;28;20309;-53
2022/06/03 10:20:20;;;;;;;16.20;6.68;;;32.30;48.00;;;33.36;36.18;95371.88;5042960;28;20735;-58
2022/06/03 10:22:48;;;;;;;13.43;4.97;;;32.60;49.60;;;33.56;36.16;95368.31;5041305;28;20212;-54
2022/06/03 10:25:16;;;;;;;6.47;3.85;;;32.70;48.80;;;33.70;36.30;95367.78;5040145;28;20243;-57
2022/06/03 10:27:45;;;;;;;15.07;5.60;;;32.90;48.90;;;33.73;36.27;95365.34;5041881;28;20301;-57
2022/06/03 10:30:15;;;;;;;8.90;4.65;;;33.00;48.90;;;33.82;36.18;95371.06;5041053;28;20264;-57
2022/06/03 10:32:42;;;;;;;6.72;4.43;;;33.10;48.60;;;33.86;36.22;95365.88;5041244;28;20208;-57
2022/06/03 10:35:15;;;;;;;20.55;7.47;;;33.10;48.70;;;33.82;36.66;95365.63;5040756;28;20245;-55
2022/06/03 10:37:49;;;;;;;9.15;5.63;;;33.10;48.90;;;33.85;35.10;95361.50;5040421;28;20235;-56
2022/06/03 10:40:17;;;;;;;18.83;7.57;;;33.10;47.80;;;33.84;36.13;95359.88;5041605;28;20224;-54
2022/06/03 10:42:47;;;;;;;13.45;5.95;;;33.10;48.60;;;33.86;35.40;95363.16;5041743;28;20223;-57
2022/06/03 10:45:15;;;;;;;11.25;5.53;;;33.10;47.50;;;33.88;34.89;95367.25;5039756;28;20244;-58
2022/06/03 10:47:45;;;;;;;8.25;5.03;;;33.10;47.10;;;33.83;35.16;95374.63;5043678;28;20585;-54
2022/06/03 10:50:15;;;;;;;5.28;4.63;;;33.10;47.70;;;33.73;35.46;95359.09;5039388;28;20287;-57
2022/06/03 11:01:17;;;;;;;8.68;5.07;;;32.90;48.50;;;33.60;36.01;95346.75;5040951;28;20231;-57
2022/06/03 11:03:49;;;;;;;9.57;5.20;;;32.90;49.20;;;33.60;35.92;95338.59;5046646;28;20185;-56
2022/06/03 11:06:22;;;;;;;6.07;4.80;;;32.90;48.00;;;33.53;35.82;95330.69;5044124;28;20801;-56
2022/06/03 11:08:53;;;;;;;11.23;5.20;;;32.90;48.10;;;33.46;35.97;95332.88;5044260;28;20281;-55
2022/06/03 11:11:38;;;;;;;8.02;4.32;;;32.80;48.40;;;33.37;36.12;95326.31;5043333;28;20601;-59
2022/06/03 11:14:32;;;;;;;5.13;4.53;;;32.70;48.40;;;33.29;36.11;95318.69;5045192;28;20535;-55
2022/06/03 11:17:06;;;;;;;8.85;4.88;;;32.60;48.00;;;33.20;36.15;95324.72;5038148;28;20193;-52
2022/06/03 11:19:36;;;;;;;6.50;4.95;;;32.50;48.20;;;33.14;36.56;95316.75;5041538;28;20220;-55
2022/06/03 11:22:31;;;;;;;8.98;4.70;;;32.50;48.30;;;33.07;36.52;95308.84;5045434;28;20196;-53
2022/06/03 11:25:09;;;;;;;5.22;3.78;;;32.40;48.50;;;32.99;36.75;95307.47;5042808;28;20232;-56
2022/06/03 11:27:44;;;;;;;5.88;5.00;;;32.30;49.00;;;32.94;36.23;95304.75;5044786;28;20734;-57
2022/06/03 11:30:15;;;;;;;4.10;3.80;;;32.20;48.60;;;32.91;36.19;95307.22;5042669;28;20639;-54
2022/06/03 11:32:46;;;;;;;9.68;4.72;;;32.20;48.70;;;32.86;36.28;95303.38;5044199;28;20643;-54
2022/06/03 11:35:22;;;;;;;13.68;5.40;;;32.20;48.60;;;32.81;36.78;95297.09;5045512;28;20243;-53
2022/06/03 11:37:52;;;;;;;9.57;4.30;;;32.10;49.00;;;32.76;36.89;95314.25;5041495;28;20203;-57
2022/06/03 11:40:23;;;;;;;12.43;5.20;;;32.10;48.80;;;32.66;35.86;95303.34;5043609;28;20589;-55
2022/06/03 11:42:54;;;;;;;5.57;5.03;;;32.00;48.40;;;32.54;36.75;95295.38;5045147;28;20670;-56
2022/06/03 11:45:23;;;;;;;8.00;5.57;;;31.90;48.50;;;32.45;36.38;95292.34;5042059;28;20233;-54
2022/06/03 11:47:55;;;;;;;11.82;4.53;;;31.80;48.60;;;32.35;36.47;95297.78;5043599;28;20588;-55
2022/06/03 11:50:25;;;;;;;5.95;4.47;;;31.70;48.40;;;32.26;37.02;95294.75;5044982;28;20629;-56
2022/06/03 11:52:54;;;;;;;6.35;4.68;;;31.60;49.10;;;32.22;37.16;95292.84;5041118;28;20197;-56
2022/06/03 11:55:23;;;;;;;8.10;4.57;;;31.50;49.10;;;32.19;37.30;95304.25;5046063;28;20232;-57
2022/06/03 11:57:56;;;;;;;17.33;4.72;;;31.50;49.00;;;32.13;36.34;95293.34;5043901;28;20209;-55
2022/06/03 12:00:24;;;;;;;11.00;4.43;;;31.50;48.10;;;32.10;36.70;95301.22;5042521;28;20225;-55
2022/06/03 12:03:06;;;;;;;5.78;4.18;;;31.40;48.60;;;32.06;36.38;95290.03;5040788;28;20197;-53
2022/06/03 12:05:35;;;;;;;11.32;4.70;;;31.40;48.50;;;32.00;36.31;95301.97;5041554;28;20579;-56